Domov               UVHVVR             MKGP            O straneh              
ZDRAVSTVENO VARSTVO RASTLIN
  MREŽA AGROMET. POSTAJ
 ► PROGNOSTIČNA OBVESTILA
AGROMETEOROLOŠKI PODATKI -
ARSO
OBVLADOVANJE TVEGANJ ZARADI
NEUGODNIH VREMENSKIH RAZMER
  ► NARAVNE NESREČE
  ► SUŠA/MOČA
  ► NAMAKANJE
  ► ŽLED (gozdarstvo)
KARTOGRAFSKI PRIKAZI
SPLETNE POVEZAVE
PROJEKTI IN PUBLIKACIJE

AGROMETEOROLOŠKA MREŽA: VREMENSKE POSTAJE IN FENOLOŠKA OPAZOVANJA

Pregled podatkov za lokacijo Zavrhek, meteorološka postaja 37907

Pregled senzorjev na lokaciji

ID Ime Zadnja
vrednost
Datum
zadnje
spremembe
Tip
senzorja
1989 Temperatura 2 m ( °C) 5,32 °C 17.10.2017 07:00 50YA
1990 Relativna vlaga 2 m (% RH) 99,93 % RH 17.10.2017 07:00 50YA
1991 Padavine 0.2 mm (mm) 0 mm 17.10.2017 07:00 Rain-O-Matic

Pregled podatkov zadnjih 24 ur

Zap.
št.
Datum in čas Zavrhek
Padavine
0.2
mm
Relativna
vlaga
2
m
Temperatura
2
m
0 17.10.2017 06:00 0 99,93 5,32
1 17.10.2017 05:30 0 99,93 3,81
2 17.10.2017 05:00 0 99,93 3,35
3 17.10.2017 04:30 0 99,93 3,35
4 17.10.2017 04:00 0 99,93 3,66
5 17.10.2017 03:30 0 99,93 3,83
6 17.10.2017 03:00 0 99,93 3,86
7 17.10.2017 02:30 0 99,93 4,03
8 17.10.2017 02:00 0 99,93 4,4
9 17.10.2017 01:30 0 99,93 4,86
10 17.10.2017 01:00 0 99,93 4,91
11 17.10.2017 00:30 0 99,93 5,27
12 17.10.2017 00:00 0 99,93 5,93
13 16.10.2017 23:30 0 99,93 6,59
14 16.10.2017 23:00 0 99,93 6,37
15 16.10.2017 22:30 0 99,93 6,72
16 16.10.2017 22:00 0 99,93 7,01
17 16.10.2017 21:30 0 99,93 7,3
18 16.10.2017 21:00 0 99,93 7,59
19 16.10.2017 20:30 0 99,93 8,03
20 16.10.2017 20:00 0 99,88 8,55
21 16.10.2017 19:30 0 98,83 9,28
22 16.10.2017 19:00 0 97,83 10,04
23 16.10.2017 18:30 0 96,61 10,92
24 16.10.2017 18:00 0 94,82 11,89
25 16.10.2017 17:30 0 91,01 13,21
26 16.10.2017 17:00 0 84,1 14,95
27 16.10.2017 16:30 0 76,63 16,7
28 16.10.2017 16:00 0 65,64 19,1
29 16.10.2017 15:30 0 60,24 20,51
30 16.10.2017 15:00 0 59,32 21,25
31 16.10.2017 14:30 0 57,88 22,1
32 16.10.2017 14:00 0 57,02 22,66
33 16.10.2017 13:30 0 56,12 20,9
34 16.10.2017 13:00 0 58,41 19,88
35 16.10.2017 12:30 0 55,63 21,9
36 16.10.2017 12:00 0 61,88 21,66
37 16.10.2017 11:30 0 63,03 20,95
38 16.10.2017 11:00 0 64,47 19,8
39 16.10.2017 10:30 0 70,33 17,75
40 16.10.2017 10:00 0 75,14 15,68
41 16.10.2017 09:30 0 84,52 13,6
42 16.10.2017 09:00 0 98,71 11,48
43 16.10.2017 08:30 0 99,93 9,67
44 16.10.2017 08:00 0 99,93 7,33
© 2011 Ministrstvo za kmetijstvo, gozdarstvo in prehrano. Vse pravice pridržane.